Time;durP1;ratioP1;P1;durP2;ratioP2;P2;SDS_P1;SDS_P2;PMS_P1;PMS_P2;Temp;Humidity;BMP_temperature;BMP_pressure;BME280_temperature;BME280_humidity;BME280_pressure;Samples;Min_cycle;Max_cycle;Signal;HPM_P1;HPM_P2
2023/08/24 00:02:52;;;;;;;16.80;11.27;;;;;;;-144.30;48.02;83631.59;5108642;28;20230;-57
2023/08/24 00:06:04;;;;;;;12.38;11.18;;;;;;;-144.30;48.69;83671.34;5106023;28;20234;-54
2023/08/24 00:09:05;;;;;;;12.18;10.88;;;;;;;-144.30;49.24;83663.38;5109772;28;20214;-55
2023/08/24 00:12:13;;;;;;;18.13;11.27;;;;;;;-144.30;49.43;83683.25;5106561;28;20581;-53
2023/08/24 00:15:15;;;;;;;14.95;12.40;;;;;;;-144.30;49.62;83681.28;5102541;28;20190;-54
2023/08/24 00:18:14;;;;;;;16.42;11.52;;;;;;;-144.30;49.98;83661.41;5104942;28;20186;-54
2023/08/24 00:21:13;;;;;;;12.43;10.85;;;;;;;-144.30;50.41;83732.94;5106257;28;20195;-45
2023/08/24 00:24:04;;;;;;;16.88;11.20;;;;;;;-144.30;50.79;83738.88;5109074;28;20191;-45
2023/08/24 00:27:04;;;;;;;14.07;11.85;;;;;;;-144.30;50.56;83715.03;5108366;28;20638;-55
2023/08/24 00:30:08;;;;;;;12.65;11.20;;;;;;;-144.30;51.18;83734.91;5107848;28;20217;-45
2023/08/24 00:36:22;;;;;;;16.00;10.50;;;;;;;-144.30;50.32;83756.78;5106122;28;20210;-55
2023/08/24 00:42:19;;;;;;;17.42;11.13;;;;;;;-144.30;50.82;83788.56;5102932;28;20285;-46
2023/08/24 00:51:12;;;;;;;17.25;12.13;;;;;;;-144.30;51.08;83754.78;5107662;28;20190;-45
2023/08/24 00:54:03;;;;;;;11.10;9.98;;;;;;;-144.30;50.65;83679.28;5108406;28;20319;-54
2023/08/24 00:57:15;;;;;;;12.00;10.90;;;;;;;-144.30;50.31;83798.50;5107385;28;20278;-55
2023/08/24 01:00:09;;;;;;;15.15;11.88;;;;;;;-144.30;50.32;83719.03;5106757;28;20279;-55
2023/08/24 01:03:03;;;;;;;17.77;11.10;;;;;;;-144.30;50.09;83752.78;5107931;28;20202;-44
2023/08/24 01:05:44;;;;;;;13.73;11.52;;;;;;;-144.30;50.20;83784.59;5107170;28;20199;-45
2023/08/24 01:08:45;;;;;;;12.82;11.32;;;;;;;-144.30;50.00;83780.63;5106652;28;20583;-55
2023/08/24 01:12:00;;;;;;;11.95;10.85;;;;;;;-144.30;49.93;83806.44;5105176;28;20195;-55
2023/08/24 01:15:11;;;;;;;12.25;11.02;;;;;;;-144.30;50.31;83746.84;5105631;28;20202;-55
2023/08/24 01:18:26;;;;;;;;;;;;;;;;;;;;;
2023/08/24 01:21:23;;;;;;;12.90;11.95;;;;;;;-144.30;50.33;83794.53;5102356;28;20213;-45
2023/08/24 01:30:21;;;;;;;12.27;11.18;;;;;;;-144.30;49.87;83842.22;5107143;28;20214;-45
2023/08/24 01:33:26;;;;;;;;;;;;;;;;;;;;;
2023/08/24 01:36:26;;;;;;;14.40;11.23;;;;;;;-144.30;50.38;83834.25;5106547;28;20202;-45
2023/08/24 01:39:26;;;;;;;11.85;10.88;;;;;;;-144.30;50.58;83877.97;5105465;28;20546;-55
2023/08/24 01:42:25;;;;;;;19.55;11.85;;;;;;;-144.30;50.62;83826.31;5106725;28;20659;-55
2023/08/24 01:45:24;;;;;;;13.88;10.93;;;;;;;-144.30;50.91;83862.09;5103290;28;20207;-55
2023/08/24 01:48:15;;;;;;;15.90;11.48;;;;;;;-144.30;51.05;83885.94;5106993;28;20217;-45
2023/08/24 01:51:07;;;;;;;14.00;11.25;;;;;;;-144.30;51.44;83818.38;5110379;28;20285;-45
2023/08/24 01:54:02;;;;;;;12.82;11.52;;;;;;;-144.30;51.46;83802.47;5112668;28;20198;-45
2023/08/24 02:00:02;;;;;;;13.38;12.07;;;;;;;-144.30;51.88;83937.59;5108719;28;20273;-55
2023/08/24 02:02:55;;;;;;;12.30;11.25;;;;;;;-144.30;52.10;83885.94;5110448;28;20190;-45
2023/08/24 02:05:54;;;;;;;13.18;11.77;;;;;;;-144.30;52.44;83919.72;5112151;28;20190;-45
2023/08/24 02:08:56;;;;;;;14.18;12.20;;;;;;;-144.30;52.44;83969.38;5107675;28;20249;-45
2023/08/24 02:14:47;;;;;;;13.25;11.23;;;;;;;-144.30;52.22;83897.84;5070508;28;20200;-55
2023/08/24 02:18:01;;;;;;;13.32;11.25;;;;;;;-144.30;52.43;83911.75;5071707;28;20204;-55
2023/08/24 02:21:01;;;;;;;13.15;11.95;;;;;;;-144.30;53.09;83925.66;5072083;28;20672;-56
2023/08/24 02:24:02;;;;;;;12.25;11.00;;;;;;;-144.30;53.36;83973.38;5072049;28;20200;-56
2023/08/24 02:27:05;;;;;;;12.27;11.02;;;;;;;-144.30;53.19;83953.50;5071997;28;20305;-54
2023/08/24 02:29:49;;;;;;;16.23;11.10;;;;;;;-144.30;53.06;83943.56;5070135;28;20730;-54
2023/08/24 02:32:45;;;;;;;12.40;11.10;;;;;;;-144.30;52.96;83917.72;5066702;28;20207;-45
2023/08/24 02:35:51;;;;;;;11.40;10.35;;;;;;;-144.30;53.21;83985.28;5068294;28;20694;-54
2023/08/24 02:39:00;;;;;;;11.73;10.77;;;;;;;-144.30;53.41;83941.56;5067957;28;20582;-54
2023/08/24 02:45:12;;;;;;;13.00;11.63;;;;;;;-144.30;54.10;83985.28;5069486;28;20284;-55
2023/08/24 02:48:16;;;;;;;12.73;11.52;;;;;;;-144.30;54.86;83981.31;5068706;28;20207;-45
2023/08/24 02:50:47;;;;;;;12.50;11.30;;;;;;;-144.30;55.55;84009.13;5059531;28;20197;-45
2023/08/24 02:53:23;;;;;;;12.50;11.13;;;;;;;-144.30;55.85;83997.22;5054665;28;20654;-45
2023/08/24 02:58:58;;;;;;;16.92;11.88;;;;;;;-144.30;56.34;84068.75;5070742;28;20342;-54
2023/08/24 03:01:58;;;;;;;13.70;11.75;;;;;;;-144.30;56.24;84007.16;5070047;28;20257;-54
2023/08/24 03:04:34;;;;;;;12.63;11.52;;;;;;;-144.30;56.28;84007.16;5071060;28;20242;-54
2023/08/24 03:07:40;;;;;;;;;;;;;;;;;;;;;
2023/08/24 03:10:14;;;;;;;12.75;11.55;;;;;;;-144.30;56.20;84021.06;5070463;28;20215;-54
2023/08/24 03:12:52;;;;;;;13.45;11.77;;;;;;;-144.30;56.33;84044.91;5088599;28;20230;-54
2023/08/24 03:15:37;;;;;;;15.75;11.73;;;;;;;-144.30;56.47;84086.63;5110766;28;20259;-55
2023/08/24 03:18:09;;;;;;;15.07;12.32;;;;;;;-144.30;56.31;84044.91;5106828;28;20202;-54
2023/08/24 03:20:55;;;;;;;13.52;11.77;;;;;;;-144.30;56.22;84056.81;5110744;28;20248;-54
2023/08/24 03:23:31;;;;;;;13.75;11.40;;;;;;;-144.30;56.10;84025.03;5107437;27;20202;-44
2023/08/24 03:26:08;;;;;;;15.13;12.23;;;;;;;-144.30;56.04;84070.72;5101659;28;20217;-45
2023/08/24 03:28:39;;;;;;;21.17;11.90;;;;;;;-144.30;56.10;84090.59;5107770;28;20285;-55
2023/08/24 03:31:14;;;;;;;13.07;11.70;;;;;;;-144.30;56.34;84052.84;5110097;28;20198;-44
2023/08/24 03:33:42;;;;;;;14.07;11.30;;;;;;;-144.30;56.26;84092.59;5109435;28;20199;-45
2023/08/24 03:36:19;;;;;;;17.92;11.80;;;;;;;-144.30;56.17;84052.84;5108537;28;20308;-54
2023/08/24 03:38:54;;;;;;;13.25;11.25;;;;;;;-144.30;55.99;84110.47;5110803;28;20365;-54
2023/08/24 03:41:38;;;;;;;13.63;11.80;;;;;;;-144.30;56.14;84062.78;5108594;28;20684;-54
2023/08/24 03:44:16;;;;;;;13.30;11.93;;;;;;;-144.30;56.00;84064.78;5109696;28;20202;-54
2023/08/24 03:46:48;;;;;;;15.65;11.00;;;;;;;-144.30;56.09;84082.66;5110551;28;20209;-45
2023/08/24 03:55:51;;;;;;;19.52;10.75;;;;;;;-144.30;55.39;84031.00;5088235;28;20210;-55
2023/08/24 04:01:52;;;;;;;15.52;11.02;;;;;;;-144.30;55.40;84038.94;5088785;28;20779;-55
2023/08/24 04:04:40;;;;;;;12.52;11.40;;;;;;;-144.30;55.05;84031.00;5088845;28;20211;-54
2023/08/24 04:08:00;;;;;;;13.75;11.00;;;;;;;-144.30;54.69;84060.78;5089988;28;20203;-55
2023/08/24 04:11:03;;;;;;;12.68;11.48;;;;;;;-144.30;54.47;84011.13;5089950;28;20241;-45
2023/08/24 04:14:00;;;;;;;12.23;10.40;;;;;;;-144.30;54.08;83989.25;5088496;28;20262;-55
2023/08/24 04:20:16;;;;;;;12.45;11.25;;;;;;;-144.30;52.93;83907.78;5090131;28;20190;-45
2023/08/24 04:23:20;;;;;;;12.90;11.13;;;;;;;-144.30;51.42;83836.25;5089889;28;20199;-55
2023/08/24 04:26:32;;;;;;;17.42;11.90;;;;;;;-144.30;49.97;83760.75;5088400;28;20198;-46
2023/08/24 04:38:43;;;;;;;23.70;16.30;;;;;;;-144.30;44.43;83353.44;5086498;28;20706;-45
2023/08/24 04:41:26;;;;;;;15.18;12.82;;;;;;;-144.30;42.83;83186.56;5107613;28;20667;-46
2023/08/24 04:43:57;;;;;;;13.80;12.38;;;;;;;-144.30;41.25;83033.59;5106225;28;20719;-54
2023/08/24 04:46:29;;;;;;;34.92;24.50;;;;;;;-144.30;40.12;82946.16;5109204;28;20206;-54
2023/08/24 04:49:01;;;;;;;26.02;20.15;;;;;;;-144.30;38.58;82741.56;5108822;28;20206;-53
2023/08/24 04:51:39;;;;;;;19.50;14.10;;;;;;;-144.30;37.94;82634.31;5107331;28;20243;-55
2023/08/24 04:54:09;;;;;;;16.02;11.70;;;;;;;-144.30;36.58;82501.22;5105846;28;20201;-55
2023/08/24 04:56:52;;;;;;;15.88;12.25;;;;;;;-144.30;36.17;82431.69;5109101;28;20195;-55
2023/08/24 04:59:20;;;;;;;19.73;15.15;;;;;;;-144.30;35.56;82352.25;5107867;28;20586;-55
2023/08/24 05:01:56;;;;;;;15.07;13.07;;;;;;;-144.30;35.48;82288.69;5106574;28;20278;-46
2023/08/24 05:04:30;;;;;;;14.13;10.63;;;;;;;-144.30;34.83;82185.41;5108673;28;20198;-58
2023/08/24 05:07:07;;;;;;;12.68;10.75;;;;;;;-144.30;34.53;82086.13;5108905;28;20201;-46
2023/08/24 05:09:43;;;;;;;16.45;14.35;;;;;;;-144.30;33.94;81998.72;5107394;28;20211;-46
2023/08/24 05:12:24;;;;;;;24.40;21.90;;;;;;;-144.30;33.21;81851.78;5105937;28;20258;-55
2023/08/24 05:14:58;;;;;;;25.77;22.20;;;;;;;-144.30;32.66;81798.16;5105461;28;20638;-46
2023/08/24 05:17:32;;;;;;;18.20;14.52;;;;;;;-144.30;32.38;81736.59;5108527;28;20282;-46
2023/08/24 05:20:09;;;;;;;14.43;12.88;;;;;;;-144.30;32.53;82336.38;5109339;28;20258;-46
2023/08/24 05:22:43;;;;;;;21.85;17.10;;;;;;;-144.30;32.57;81792.19;5107180;28;20297;-47
2023/08/24 05:25:24;;;;;;;18.20;13.82;;;;;;;-144.30;32.68;81784.25;5106069;28;20178;-46
2023/08/24 05:28:02;;;;;;;13.30;12.13;;;;;;;-144.30;33.00;81899.44;5105118;28;20202;-46
2023/08/24 05:30:35;;;;;;;22.15;12.15;;;;;;;-144.30;34.41;82233.09;5105523;28;20213;-45
2023/08/24 05:33:11;;;;;;;18.05;14.88;;;;;;;-144.30;35.35;82282.75;5108833;28;20629;-54
2023/08/24 05:35:57;;;;;;;21.70;14.75;;;;;;;-144.30;35.80;82372.13;5107328;28;20282;-55
2023/08/24 05:38:55;;;;;;;20.05;14.48;;;;;;;-144.30;36.49;82437.66;5108800;28;20198;-55
2023/08/24 05:41:38;;;;;;;17.80;13.85;;;;;;;-144.30;37.07;82536.97;5108292;28;20579;-46
2023/08/24 05:44:21;;;;;;;27.00;20.85;;;;;;;-144.30;37.79;82467.44;5106108;28;20277;-45
2023/08/24 05:46:52;;;;;;;23.55;16.10;;;;;;;-144.30;37.21;82467.44;5107928;28;20226;-47
2023/08/24 05:49:24;;;;;;;29.75;19.17;;;;;;;-144.30;36.34;82348.28;5107416;28;20199;-46
2023/08/24 05:52:23;;;;;;;16.42;11.70;;;;;;;-144.30;35.13;82145.69;5104388;28;20190;-45
2023/08/24 05:55:21;;;;;;;12.52;10.07;;;;;;;-144.30;34.78;82028.53;5108965;28;20628;-55
2023/08/24 05:57:50;;;;;;;17.70;12.02;;;;;;;-144.30;34.34;81978.88;5107013;28;20246;-55
2023/08/24 06:00:22;;;;;;;18.05;16.08;;;;;;;-144.30;33.73;81883.53;5109137;28;20596;-56
2023/08/24 06:02:51;;;;;;;13.18;11.98;;;;;;;-144.30;32.68;81684.97;5108730;28;20606;-48
2023/08/24 06:05:20;;;;;;;12.40;11.13;;;;;;;-144.30;31.85;81462.56;5108800;28;20249;-45
2023/08/24 06:07:54;;;;;;;19.75;12.98;;;;;;;-144.30;30.97;81226.28;5109169;28;20202;-54
2023/08/24 06:10:29;;;;;;;13.75;10.75;;;;;;;-144.30;30.20;81180.59;5108811;28;20308;-46
2023/08/24 06:13:01;;;;;;;10.95;10.00;;;;;;;-144.30;29.76;81061.47;5108320;28;20225;-55
2023/08/24 06:15:36;;;;;;;11.18;10.27;;;;;;;-144.30;29.50;80890.72;5108599;28;20198;-54
2023/08/24 06:18:05;;;;;;;10.38;9.57;;;;;;;-144.30;28.88;80775.59;5108495;28;20512;-46
2023/08/24 06:20:35;;;;;;;14.50;11.23;;;;;;;-144.30;28.68;80751.75;5108715;28;20194;-46
2023/08/24 06:23:07;;;;;;;12.05;9.88;;;;;;;-144.30;29.09;80986.03;5108785;28;20202;-46
2023/08/24 06:25:42;;;;;;;11.27;10.10;;;;;;;-144.30;29.38;81033.69;5108816;28;20198;-54
2023/08/24 06:28:14;;;;;;;11.27;9.88;;;;;;;-144.30;29.64;81222.28;5108425;28;20194;-55
2023/08/24 06:30:48;;;;;;;11.65;10.48;;;;;;;-144.30;30.44;81466.53;5108568;28;20222;-55
2023/08/24 06:33:23;;;;;;;13.60;10.80;;;;;;;-144.30;31.55;81766.38;5108022;28;20194;-54
2023/08/24 06:35:58;;;;;;;14.93;10.60;;;;;;;-144.30;33.22;82092.06;5111222;28;20434;-46
2023/08/24 06:38:28;;;;;;;10.98;9.93;;;;;;;-144.30;34.69;82344.31;5111108;28;20190;-46
2023/08/24 06:40:59;;;;;;;21.90;12.23;;;;;;;-144.30;35.88;82590.59;5111372;28;20632;-46
2023/08/24 06:43:34;;;;;;;16.55;11.18;;;;;;;-144.30;36.76;82743.56;5111520;28;20212;-55
2023/08/24 06:46:07;;;;;;;15.68;10.93;;;;;;;-144.30;38.02;82846.84;5110048;28;20217;-55
2023/08/24 06:48:41;;;;;;;17.17;10.82;;;;;;;-144.30;38.63;82938.22;5109112;28;20194;-55
2023/08/24 06:51:11;;;;;;;16.73;11.48;;;;;;;-144.30;39.70;83037.56;5111222;28;20718;-55
2023/08/24 06:53:40;;;;;;;16.77;11.30;;;;;;;-144.30;40.45;83091.19;5111382;28;20222;-53
2023/08/24 06:56:11;;;;;;;21.25;13.13;;;;;;;-144.30;41.58;83170.66;5111004;28;20202;-45
2023/08/24 06:58:45;;;;;;;46.50;13.63;;;;;;;-144.30;41.98;83156.75;5111577;28;20205;-47
2023/08/24 07:01:14;;;;;;;53.83;14.38;;;;;;;-144.30;43.69;83200.47;5111673;28;20767;-45
2023/08/24 07:03:41;;;;;;;28.25;12.10;;;;;;;-144.30;47.65;83208.41;5111167;28;20190;-46
2023/08/24 07:06:08;;;;;;;21.77;12.15;;;;;;;-144.30;51.85;83303.75;5111477;28;20201;-45
2023/08/24 07:08:35;;;;;;;49.33;17.27;;;;;;;-144.30;59.27;83067.34;5111170;28;20278;-54
2023/08/24 07:11:02;;;;;;;43.17;15.60;;;;;;;-144.30;58.03;83279.94;5111590;28;20214;-45
2023/08/24 07:13:32;;;;;;;24.08;12.85;;;;;;;-144.30;55.03;82983.91;5111051;28;20695;-45
2023/08/24 07:16:00;;;;;;;28.77;12.57;;;;;;;-144.30;50.33;82793.22;5111060;28;20594;-46
2023/08/24 07:18:37;;;;;;;19.85;13.10;;;;;;;-144.30;49.16;82519.09;5111102;28;20617;-45
2023/08/24 07:21:10;;;;;;;19.25;13.82;;;;;;;-144.30;46.34;82278.75;5111185;28;20290;-45
2023/08/24 07:23:42;;;;;;;21.42;14.73;;;;;;;-144.30;45.75;82006.69;5111022;28;20203;-46
2023/08/24 07:26:15;;;;;;;117.32;21.85;;;;;;;-144.30;43.53;81798.16;5111225;28;20285;-46
2023/08/24 07:28:45;;;;;;;15.32;12.70;;;;;;;-144.30;41.79;81597.59;5110794;28;20694;-55
2023/08/24 07:31:18;;;;;;;21.45;12.30;;;;;;;-144.30;41.78;81770.34;5110908;28;20730;-46
2023/08/24 07:33:49;;;;;;;14.00;11.27;;;;;;;-144.30;43.24;82010.66;5110974;28;20560;-54
2023/08/24 07:36:21;;;;;;;18.90;10.48;;;;;;;-144.30;44.10;82260.88;5109967;28;20260;-54
2023/08/24 07:38:52;;;;;;;10.57;9.55;;;;;;;-144.30;46.55;82487.31;5110782;28;20293;-54
2023/08/24 07:41:25;;;;;;;12.88;10.43;;;;;;;-144.30;49.76;82656.16;5109354;28;20197;-53
2023/08/24 07:44:00;;;;;;;13.82;11.20;;;;;;;-144.30;50.82;82813.06;5110892;28;20198;-45
2023/08/24 07:46:36;;;;;;;9.15;8.30;;;;;;;-144.30;50.81;82876.66;5110493;28;20285;-54
2023/08/24 07:49:06;;;;;;;10.48;9.50;;;;;;;-144.30;50.53;82699.84;5109650;28;20198;-53
2023/08/24 07:51:42;;;;;;;11.60;9.75;;;;;;;-144.30;48.43;82467.44;5109974;28;20621;-46
2023/08/24 07:54:15;;;;;;;14.85;9.90;;;;;;;-144.30;45.29;82197.34;5110553;28;20577;-54
2023/08/24 07:56:46;;;;;;;11.95;10.82;;;;;;;-144.30;44.33;81974.91;5110360;28;20195;-46
2023/08/24 07:59:15;;;;;;;13.60;10.63;;;;;;;-144.30;42.86;81921.28;5110763;28;20596;-46
2023/08/24 08:01:47;;;;;;;14.07;10.65;;;;;;;-144.30;40.83;81633.31;5110648;28;20195;-54
2023/08/24 08:04:17;;;;;;;12.18;9.40;;;;;;;-144.30;40.50;81635.31;5110281;28;20202;-55
2023/08/24 08:06:52;;;;;;;9.93;8.98;;;;;;;-144.30;39.73;81460.56;5110683;28;20194;-55
2023/08/24 08:09:24;;;;;;;9.52;8.52;;;;;;;-144.30;38.33;81373.19;5110136;28;20194;-55
2023/08/24 08:11:57;;;;;;;8.32;7.57;;;;;;;-144.30;36.49;81093.25;5109971;28;20814;-55
2023/08/24 08:14:25;;;;;;;8.82;7.03;;;;;;;-144.30;36.32;81111.13;5109310;28;20194;-55
2023/08/24 08:16:56;;;;;;;9.63;7.13;;;;;;;-144.30;35.13;80938.38;5110856;28;20194;-47
2023/08/24 08:19:28;;;;;;;8.30;7.70;;;;;;;-144.30;35.12;80928.44;5110028;28;20197;-46
2023/08/24 08:22:01;;;;;;;7.90;7.18;;;;;;;-144.30;34.75;80809.34;5110263;28;20201;-57
2023/08/24 08:24:31;;;;;;;8.48;7.05;;;;;;;-144.30;33.94;80934.41;5108673;28;20543;-45
2023/08/24 08:27:02;;;;;;;7.93;7.47;;;;;;;-144.30;33.96;81244.13;5110131;28;20243;-55
2023/08/24 08:29:35;;;;;;;8.05;7.32;;;;;;;-144.30;35.87;81524.13;5109279;28;20240;-55
2023/08/24 08:32:07;;;;;;;10.93;7.75;;;;;;;-144.30;36.84;81526.09;5109017;28;20611;-54
2023/08/24 08:34:39;;;;;;;8.13;7.53;;;;;;;-144.30;36.50;81450.66;5095406;28;20199;-54
2023/08/24 08:37:11;;;;;;;8.65;7.85;;;;;;;-144.30;34.61;81238.19;5089700;28;20199;-46
2023/08/24 08:39:40;;;;;;;8.52;7.82;;;;;;;-144.30;33.98;81069.41;5089640;28;20190;-54
2023/08/24 08:42:16;;;;;;;7.90;7.20;;;;;;;-144.30;33.03;80860.94;5089460;28;20191;-46
2023/08/24 08:44:48;;;;;;;8.20;7.38;;;;;;;-144.30;32.46;80868.88;5089405;28;20263;-54
2023/08/24 08:47:23;;;;;;;8.93;8.02;;;;;;;-144.30;33.61;81128.97;5089017;28;20203;-54
2023/08/24 08:50:03;;;;;;;8.27;7.28;;;;;;;-144.30;34.08;81264.00;5092403;28;20189;-55
2023/08/24 08:53:14;;;;;;;11.05;8.02;;;;;;;-144.30;35.88;81490.34;5109616;28;20289;-56
2023/08/24 08:56:20;;;;;;;9.13;7.72;;;;;;;-144.30;36.40;81655.19;5107099;28;20698;-46
2023/08/24 08:59:09;;;;;;;11.38;8.45;;;;;;;-144.30;37.46;81812.06;5108055;28;20198;-46
2023/08/24 09:02:37;;;;;;;10.93;8.27;;;;;;;-144.30;39.38;81988.81;5108514;28;20204;-55
2023/08/24 09:15:02;;;;;;;9.23;8.32;;;;;;;-144.30;39.18;81976.88;5109035;28;20198;-46
2023/08/24 09:17:56;;;;;;;16.27;8.18;;;;;;;-144.30;38.37;81788.22;5109340;28;20198;-45
2023/08/24 09:21:16;;;;;;;10.20;9.40;;;;;;;-144.30;37.41;81456.59;5109323;28;20686;-46
2023/08/24 09:26:42;;;;;;;10.85;9.00;;;;;;;-144.30;34.31;80972.13;5106301;28;20694;-46
2023/08/24 09:29:16;;;;;;;18.85;17.05;;;;;;;-144.30;33.86;80716.03;5108273;28;20204;-46
2023/08/24 09:31:54;;;;;;;10.98;8.60;;;;;;;-144.30;32.63;80529.41;5109091;28;20257;-55
2023/08/24 09:34:30;;;;;;;9.57;8.57;;;;;;;-144.30;31.54;80239.59;5109167;28;20193;-54
2023/08/24 09:37:06;;;;;;;9.07;8.13;;;;;;;-144.30;30.50;80116.53;5109367;28;20204;-54
2023/08/24 09:39:35;;;;;;;11.05;9.68;;;;;;;-144.30;29.73;79894.22;5103031;28;20237;-47
2023/08/24 09:42:08;;;;;;;10.50;9.57;;;;;;;-144.30;30.75;80110.56;5099678;28;20190;-54
2023/08/24 09:44:42;;;;;;;8.82;8.15;;;;;;;-144.30;30.44;80213.78;5106103;28;20238;-47
2023/08/24 09:47:19;;;;;;;8.73;7.88;;;;;;;-144.30;31.38;80434.13;5095906;28;20210;-46
2023/08/24 09:49:55;;;;;;;12.93;10.48;;;;;;;-144.30;32.52;80813.31;5108520;28;20197;-46
2023/08/24 09:52:38;;;;;;;11.05;8.50;;;;;;;-144.30;33.10;81144.88;5102891;28;20245;-46
2023/08/24 09:55:34;;;;;;;9.43;8.60;;;;;;;-144.30;34.38;81482.41;5106087;28;20730;-54
2023/08/24 09:58:12;;;;;;;10.00;9.00;;;;;;;-144.30;34.92;81522.13;5108407;28;20632;-54
2023/08/24 10:00:39;;;;;;;9.60;8.73;;;;;;;-144.30;34.54;81625.38;5108658;28;20202;-54
2023/08/24 10:03:11;;;;;;;10.45;9.50;;;;;;;-144.30;35.37;81688.94;5108640;28;20288;-54
2023/08/24 10:05:42;;;;;;;10.60;9.70;;;;;;;-144.30;35.98;81673.03;5108603;28;20280;-45
2023/08/24 10:08:19;;;;;;;10.70;9.90;;;;;;;-144.30;36.77;81780.28;5108653;28;20210;-46
2023/08/24 10:10:55;;;;;;;21.20;10.23;;;;;;;-144.30;36.69;81768.38;5111501;28;20218;-46
2023/08/24 10:13:33;;;;;;;11.27;10.27;;;;;;;-144.30;36.78;81812.06;5111962;28;20310;-55
2023/08/24 10:16:05;;;;;;;12.43;11.38;;;;;;;-144.30;37.13;81820.00;5112424;28;20194;-45
2023/08/24 10:18:36;;;;;;;10.93;9.88;;;;;;;-144.30;36.33;81740.56;5112597;28;20202;-45
2023/08/24 10:21:09;;;;;;;12.27;11.10;;;;;;;-144.30;35.87;81700.84;5112583;28;20860;-54
2023/08/24 10:23:41;;;;;;;11.48;10.10;;;;;;;-144.30;35.94;81816.03;5112147;28;20199;-45
2023/08/24 10:26:11;;;;;;;11.32;10.10;;;;;;;-144.30;36.02;81792.19;5112342;28;20195;-45
2023/08/24 10:28:41;;;;;;;11.50;10.48;;;;;;;-144.30;35.78;81829.94;5112109;28;20761;-47
2023/08/24 10:31:19;;;;;;;11.10;10.15;;;;;;;-144.30;36.55;81893.47;5112233;28;20624;-54
2023/08/24 10:33:52;;;;;;;11.63;10.60;;;;;;;-144.30;36.26;81851.78;5112288;28;20194;-47
2023/08/24 10:36:26;;;;;;;9.00;8.40;;;;;;;-144.30;35.26;81839.84;5112166;28;20205;-46
2023/08/24 10:39:05;;;;;;;10.02;9.10;;;;;;;-144.30;34.85;81883.53;5112229;28;20613;-47
2023/08/24 10:41:52;;;;;;;10.23;9.32;;;;;;;-144.30;35.70;81875.59;5112491;28;20662;-55
2023/08/24 10:44:36;;;;;;;106.00;18.25;;;;;;;-144.30;35.10;81831.91;5111875;28;20191;-45
2023/08/24 10:47:15;;;;;;;11.02;9.93;;;;;;;-144.30;35.73;81863.69;5111871;28;20234;-46
2023/08/24 10:49:47;;;;;;;16.10;11.02;;;;;;;-144.30;36.08;81943.13;5111679;28;20206;-47
2023/08/24 10:52:28;;;;;;;11.27;10.27;;;;;;;-144.30;36.01;81891.50;5111904;28;20226;-55
2023/08/24 10:55:03;;;;;;;12.27;10.63;;;;;;;-144.30;37.12;82054.34;5111977;28;20205;-55
2023/08/24 10:57:41;;;;;;;12.55;11.23;;;;;;;-144.30;37.76;82078.16;5111864;28;20584;-55
2023/08/24 11:00:17;;;;;;;11.30;10.35;;;;;;;-144.30;38.59;82119.88;5111573;28;20595;-47
2023/08/24 11:02:51;;;;;;;19.95;10.35;;;;;;;-144.30;38.86;82157.63;5112182;28;20201;-47
2023/08/24 11:05:22;;;;;;;11.38;10.07;;;;;;;-144.30;38.74;82169.53;5111726;28;20197;-46
2023/08/24 11:07:59;;;;;;;10.50;9.68;;;;;;;-144.30;37.58;82193.38;5111500;28;20194;-55
2023/08/24 11:10:38;;;;;;;9.70;8.70;;;;;;;-144.30;38.14;82252.94;5111684;28;20238;-55
2023/08/24 11:13:15;;;;;;;9.88;9.02;;;;;;;-144.30;38.09;82252.94;5110442;28;20234;-55
2023/08/24 11:15:54;;;;;;;9.57;8.82;;;;;;;-144.30;38.66;82296.63;5111272;28;20264;-54
2023/08/24 11:18:26;;;;;;;54.97;13.73;;;;;;;-144.30;38.46;82217.19;5111340;28;20567;-46
2023/08/24 11:20:58;;;;;;;18.70;10.23;;;;;;;-144.30;38.56;82199.31;5110770;28;20204;-45
2023/08/24 11:23:27;;;;;;;13.50;10.57;;;;;;;-144.30;38.31;82133.78;5111521;28;20267;-45
2023/08/24 11:26:00;;;;;;;33.97;11.65;;;;;;;-144.30;38.53;82217.19;5111291;28;20210;-46
2023/08/24 11:28:30;;;;;;;15.70;8.93;;;;;;;-144.30;36.96;82181.44;5110857;28;20198;-46
2023/08/24 11:31:01;;;;;;;12.80;9.05;;;;;;;-144.30;36.08;82139.75;5110484;28;20244;-46
2023/08/24 11:33:34;;;;;;;9.07;8.38;;;;;;;-144.30;35.51;82026.53;5111210;28;20283;-46
2023/08/24 11:36:14;;;;;;;9.88;9.00;;;;;;;-144.30;34.97;82056.31;5111071;28;20191;-46
2023/08/24 11:38:48;;;;;;;10.57;9.02;;;;;;;-144.30;34.57;82048.38;5110983;28;20624;-45
2023/08/24 11:41:22;;;;;;;14.30;8.07;;;;;;;-144.30;34.43;82040.44;5111010;28;20610;-45
2023/08/24 11:44:02;;;;;;;9.60;8.65;;;;;;;-144.30;33.95;82002.69;5110910;28;20198;-45
2023/08/24 11:46:34;;;;;;;13.52;7.97;;;;;;;-144.30;34.31;82022.56;5111015;28;20201;-47
2023/08/24 11:49:07;;;;;;;13.32;8.57;;;;;;;-144.30;34.45;81947.09;5110980;28;20610;-46
2023/08/24 11:51:41;;;;;;;16.10;9.35;;;;;;;-144.30;33.77;81921.28;5110471;28;20309;-54
2023/08/24 11:54:13;;;;;;;9.38;8.68;;;;;;;-144.30;33.33;81935.19;5110216;28;20230;-54
2023/08/24 11:56:52;;;;;;;9.30;8.60;;;;;;;-144.30;33.78;81943.13;5110537;28;20194;-54
2023/08/24 11:59:22;;;;;;;9.60;8.88;;;;;;;-144.30;33.58;81911.34;5110545;28;20273;-54
2023/08/24 12:01:53;;;;;;;11.23;10.35;;;;;;;-144.30;33.29;81869.66;5110328;28;20216;-55
2023/08/24 12:04:25;;;;;;;10.55;9.85;;;;;;;-144.30;33.02;81863.69;5110596;28;20251;-54
2023/08/24 12:06:55;;;;;;;11.68;10.32;;;;;;;-144.30;32.34;81871.63;5110430;28;20190;-54
2023/08/24 12:09:30;;;;;;;9.52;8.93;;;;;;;-144.30;32.56;81911.34;5110391;28;20203;-54
2023/08/24 12:12:04;;;;;;;10.00;9.07;;;;;;;-144.30;32.36;81871.63;5110030;28;20217;-54
2023/08/24 12:14:44;;;;;;;8.95;8.25;;;;;;;-144.30;32.44;81907.38;5070137;28;20238;-54
2023/08/24 12:17:15;;;;;;;10.88;10.07;;;;;;;-144.30;32.56;81901.41;5069880;28;20283;-54
2023/08/24 12:19:49;;;;;;;10.40;9.50;;;;;;;-144.30;32.67;81873.63;5069630;28;20202;-46
2023/08/24 12:22:27;;;;;;;9.20;8.50;;;;;;;-144.30;32.68;81849.78;5069564;28;20204;-47
2023/08/24 12:25:01;;;;;;;13.90;12.48;;;;;;;-144.30;32.84;81814.03;5069658;28;20252;-47
2023/08/24 12:27:33;;;;;;;11.63;9.68;;;;;;;-144.30;32.93;81792.19;5069363;28;20195;-46
2023/08/24 12:30:09;;;;;;;20.73;18.88;;;;;;;-144.30;32.58;81776.31;5069802;28;20219;-47
2023/08/24 12:32:50;;;;;;;13.07;11.98;;;;;;;-144.30;32.32;81768.38;5068807;28;20349;-45
2023/08/24 12:35:22;;;;;;;12.57;11.35;;;;;;;-144.30;32.13;81792.19;5069432;28;20681;-45
2023/08/24 12:37:55;;;;;;;10.90;9.27;;;;;;;-144.30;32.99;81877.59;5069206;28;20200;-45
2023/08/24 12:40:26;;;;;;;10.30;9.48;;;;;;;-144.30;31.80;81891.50;5069274;28;20191;-54
2023/08/24 12:43:05;;;;;;;10.50;9.23;;;;;;;-144.30;32.36;81927.22;5069359;28;20200;-55
2023/08/24 12:45:32;;;;;;;9.10;8.32;;;;;;;-144.30;31.97;81923.25;5069270;28;20203;-55
2023/08/24 12:48:02;;;;;;;13.27;11.52;;;;;;;-144.30;32.46;81935.19;5069202;28;20200;-54
2023/08/24 12:50:34;;;;;;;11.68;10.50;;;;;;;-144.30;32.73;81947.09;5069089;28;20199;-55
2023/08/24 12:53:06;;;;;;;36.28;10.88;;;;;;;-144.30;33.54;82004.69;5068813;28;20307;-55
2023/08/24 12:55:35;;;;;;;10.52;8.65;;;;;;;-144.30;32.42;81955.03;5069030;28;20219;-54
2023/08/24 12:58:12;;;;;;;8.93;8.20;;;;;;;-144.30;32.02;81903.41;5069258;28;20747;-55
2023/08/24 13:00:41;;;;;;;8.80;8.20;;;;;;;-144.30;32.41;81941.13;5068597;28;20188;-55
2023/08/24 13:03:16;;;;;;;9.50;8.82;;;;;;;-144.30;32.26;81849.78;5068786;28;20254;-46
2023/08/24 13:05:47;;;;;;;16.00;10.65;;;;;;;-144.30;32.14;81879.56;5068931;28;20235;-45
2023/08/24 13:08:19;;;;;;;10.13;8.68;;;;;;;-144.30;32.00;81847.78;5069270;28;20580;-45
2023/08/24 13:10:53;;;;;;;10.27;9.38;;;;;;;-144.30;31.87;81863.69;5069336;28;20200;-55
2023/08/24 13:13:27;;;;;;;9.07;8.18;;;;;;;-144.30;32.12;81820.00;5090836;28;20234;-55
2023/08/24 13:16:00;;;;;;;10.80;9.88;;;;;;;-144.30;31.68;81841.84;5109331;28;20568;-46